createdAt,value
2023-02-17T00:02:05.642Z,2.08
2023-02-17T00:04:35.879Z,1.58
2023-02-17T00:07:05.917Z,2.20
2023-02-17T00:12:05.418Z,1.33
2023-02-17T00:14:35.648Z,1.75
2023-02-17T00:17:05.509Z,2.47
2023-02-17T00:19:35.414Z,1.30
2023-02-17T00:22:05.475Z,1.50
2023-02-17T00:27:06.177Z,1.45
2023-02-17T00:29:36.421Z,1.20
2023-02-17T00:32:06.578Z,1.13
2023-02-17T00:34:36.764Z,1.80
2023-02-17T00:37:06.815Z,1.20
2023-02-17T00:39:36.963Z,1.25
2023-02-17T00:42:07.543Z,1.83
2023-02-17T00:44:37.456Z,0.98
2023-02-17T00:47:07.557Z,1.00
2023-02-17T00:52:07.472Z,1.52
2023-02-17T00:54:37.605Z,1.10
2023-02-17T00:59:37.067Z,1.65
2023-02-17T01:02:10.784Z,1.92
2023-02-17T01:04:40.929Z,1.33
2023-02-17T01:07:11.076Z,2.15
2023-02-17T01:09:42.341Z,1.70
2023-02-17T01:14:43.681Z,1.45
2023-02-17T01:17:13.702Z,1.55
2023-02-17T01:19:43.828Z,1.85
2023-02-17T01:22:13.831Z,1.63
2023-02-17T01:24:43.774Z,1.80
2023-02-17T01:27:13.673Z,0.85
2023-02-17T01:29:45.880Z,1.50
2023-02-17T01:32:16.058Z,1.73
2023-02-17T01:37:16.484Z,1.27
2023-02-17T01:39:46.494Z,0.98
2023-02-17T01:45:18.971Z,1.13
2023-02-17T01:48:26.850Z,1.17
2023-02-17T01:51:04.620Z,1.25
2023-02-17T01:53:50.238Z,1.10
2023-02-17T01:56:20.655Z,1.30
2023-02-17T01:58:57.073Z,1.10
2023-02-17T02:01:28.146Z,1.77
2023-02-17T02:04:00.079Z,1.50
2023-02-17T02:06:31.351Z,1.27
2023-02-17T02:09:14.646Z,1.63
2023-02-17T02:11:44.863Z,1.70
2023-02-17T02:14:15.246Z,1.23
2023-02-17T02:16:52.371Z,1.65
2023-02-17T02:19:43.999Z,1.48
2023-02-17T02:22:16.570Z,1.42
2023-02-17T02:25:00.284Z,1.52
2023-02-17T02:28:23.291Z,1.70
2023-02-17T02:31:05.053Z,1.98
2023-02-17T02:33:47.673Z,1.20
2023-02-17T02:36:27.418Z,1.92
2023-02-17T02:39:11.603Z,1.48
2023-02-17T02:41:46.779Z,1.55
2023-02-17T02:44:20.768Z,1.60
2023-02-17T02:47:09.087Z,1.25
2023-02-17T02:49:41.343Z,1.83
2023-02-17T02:52:17.162Z,1.50
2023-02-17T02:55:06.250Z,1.30
2023-02-17T02:58:00.623Z,1.30
2023-02-17T03:00:55.236Z,1.40
2023-02-17T03:03:59.374Z,1.50
2023-02-17T03:06:39.435Z,1.65
2023-02-17T03:09:14.399Z,1.70
2023-02-17T03:11:44.751Z,2.00
2023-02-17T03:14:18.738Z,1.75
2023-02-17T03:16:49.766Z,2.33
2023-02-17T03:19:23.658Z,1.60
2023-02-17T03:22:30.441Z,2.53
2023-02-17T03:25:02.413Z,2.67
2023-02-17T03:27:32.593Z,2.20
2023-02-17T03:30:02.762Z,2.63
2023-02-17T03:35:02.207Z,2.05
2023-02-17T03:37:32.558Z,2.13
2023-02-17T03:42:32.137Z,3.33
2023-02-17T03:47:31.601Z,2.35
2023-02-17T03:50:01.505Z,1.58
2023-02-17T03:55:01.209Z,1.25
2023-02-17T03:57:33.021Z,1.60
2023-02-17T04:00:03.129Z,1.65
2023-02-17T04:02:44.174Z,1.63
2023-02-17T04:05:14.413Z,2.15
2023-02-17T04:10:14.048Z,1.80
2023-02-17T04:15:13.807Z,0.75
2023-02-17T04:17:43.637Z,0.60
2023-02-17T04:20:13.992Z,0.63
2023-02-17T04:22:44.188Z,0.60
2023-02-17T04:25:14.494Z,0.38
2023-02-17T04:27:44.551Z,0.50
2023-02-17T04:30:14.977Z,0.38
2023-02-17T04:32:45.312Z,0.30
2023-02-17T04:35:15.583Z,0.30
2023-02-17T04:37:45.646Z,0.20
2023-02-17T04:40:15.857Z,0.30
2023-02-17T04:42:46.426Z,0.25
2023-02-17T04:45:16.666Z,0.20
2023-02-17T04:47:46.756Z,0.22
2023-02-17T04:50:16.708Z,0.30
2023-02-17T04:55:16.786Z,0.22
2023-02-17T04:57:47.200Z,0.30
2023-02-17T05:00:17.747Z,0.30
2023-02-17T05:02:48.124Z,0.40
2023-02-17T05:05:20.189Z,0.47
2023-02-17T05:07:50.908Z,0.30
2023-02-17T05:10:24.099Z,0.30
2023-02-17T05:12:54.615Z,0.22
2023-02-17T05:15:25.041Z,0.20
2023-02-17T05:17:55.399Z,0.60
2023-02-17T05:20:25.874Z,0.90
2023-02-17T05:22:56.333Z,1.02
2023-02-17T05:25:26.727Z,1.38
2023-02-17T05:27:57.205Z,1.27
2023-02-17T05:30:27.813Z,1.25
2023-02-17T05:32:58.229Z,0.98
2023-02-17T05:35:28.890Z,0.70
2023-02-17T05:37:59.242Z,0.47
2023-02-17T05:40:29.574Z,0.35
2023-02-17T05:42:59.929Z,0.20
2023-02-17T05:45:30.374Z,0.30
2023-02-17T05:50:30.297Z,0.30
2023-02-17T05:53:05.802Z,0.22
2023-02-17T05:55:36.193Z,0.40
2023-02-17T05:58:06.855Z,0.28
2023-02-17T06:00:37.316Z,0.20
2023-02-17T06:03:07.930Z,0.17
2023-02-17T06:05:38.621Z,0.30
2023-02-17T06:08:09.807Z,0.20
2023-02-17T06:10:40.170Z,0.28
2023-02-17T06:13:10.908Z,0.60
2023-02-17T06:15:41.316Z,0.30
2023-02-17T06:18:11.969Z,0.45
2023-02-17T06:20:42.669Z,0.20
2023-02-17T06:23:13.034Z,0.50
2023-02-17T06:25:43.684Z,0.40
2023-02-17T06:28:14.170Z,0.20
2023-02-17T06:30:44.825Z,0.57
2023-02-17T06:33:15.238Z,0.70
2023-02-17T06:35:51.083Z,0.65
2023-02-17T06:38:21.628Z,0.55
2023-02-17T06:40:51.991Z,0.40
2023-02-17T06:43:22.686Z,0.30
2023-02-17T06:45:53.245Z,0.40
2023-02-17T06:48:23.708Z,0.57
2023-02-17T06:53:23.602Z,0.40
2023-02-17T06:55:53.982Z,0.30
2023-02-17T06:58:24.654Z,0.15
2023-02-17T07:00:55.027Z,0.73
2023-02-17T07:03:25.555Z,0.80
2023-02-17T07:06:02.407Z,0.82
2023-02-17T07:08:34.119Z,1.13
2023-02-17T07:11:12.599Z,1.58
2023-02-17T07:13:43.292Z,1.30
2023-02-17T07:16:15.752Z,1.08
2023-02-17T07:18:46.343Z,0.82
2023-02-17T07:21:16.890Z,1.10
2023-02-17T07:23:47.309Z,0.68
2023-02-17T07:26:17.805Z,0.65
2023-02-17T07:28:48.275Z,0.40
2023-02-17T07:31:19.638Z,0.43
2023-02-17T07:33:51.587Z,0.30
2023-02-17T07:36:22.042Z,0.68
2023-02-17T07:38:52.534Z,0.40
2023-02-17T07:41:25.991Z,0.70
2023-02-17T07:43:59.085Z,0.93
2023-02-17T07:46:29.994Z,0.90
2023-02-17T07:49:00.906Z,0.80
2023-02-17T07:51:31.302Z,0.80
2023-02-17T07:54:03.998Z,0.50
2023-02-17T07:56:35.300Z,0.50
2023-02-17T07:59:05.917Z,0.70
2023-02-17T08:01:36.462Z,1.50
2023-02-17T08:04:07.382Z,1.17
2023-02-17T08:06:41.494Z,0.60
2023-02-17T08:09:31.729Z,0.90
2023-02-17T08:12:21.050Z,0.43
2023-02-17T08:14:51.409Z,0.60
2023-02-17T08:17:21.848Z,0.98
2023-02-17T08:19:52.280Z,0.88
2023-02-17T08:22:22.794Z,0.60
2023-02-17T08:24:53.324Z,0.60
2023-02-17T08:27:23.910Z,0.85
2023-02-17T08:29:55.820Z,0.65
2023-02-17T08:32:26.632Z,0.60
2023-02-17T08:34:59.842Z,0.73
2023-02-17T08:37:31.555Z,0.70
2023-02-17T08:40:02.276Z,0.88
2023-02-17T08:42:34.498Z,0.90
2023-02-17T08:45:06.775Z,0.50
2023-02-17T08:47:38.131Z,0.60
2023-02-17T08:50:10.725Z,0.85
2023-02-17T08:52:41.163Z,1.50
2023-02-17T08:55:12.385Z,0.75
2023-02-17T08:57:43.013Z,0.95
2023-02-17T09:00:13.983Z,1.10
2023-02-17T09:02:47.671Z,0.65
2023-02-17T09:05:18.143Z,1.00
2023-02-17T09:07:48.551Z,1.10
2023-02-17T09:10:19.061Z,0.85
2023-02-17T09:12:49.565Z,0.80
2023-02-17T09:17:49.595Z,0.70
2023-02-17T09:20:25.073Z,0.82
2023-02-17T09:22:55.861Z,0.95
2023-02-17T09:27:55.341Z,1.00
2023-02-17T09:30:25.786Z,0.82
2023-02-17T09:32:55.932Z,1.10
2023-02-17T09:35:26.614Z,0.90
2023-02-17T09:37:56.784Z,1.00
2023-02-17T09:40:41.233Z,0.90
2023-02-17T09:43:25.113Z,1.08
2023-02-17T09:46:02.133Z,0.65
2023-02-17T09:48:34.074Z,0.88
2023-02-17T09:51:31.995Z,1.45
2023-02-17T09:54:25.474Z,1.10
2023-02-17T09:56:58.303Z,1.25
2023-02-17T09:59:46.441Z,1.00
2023-02-17T10:02:27.724Z,0.90
2023-02-17T10:05:02.265Z,1.08
2023-02-17T10:07:38.588Z,1.00
2023-02-17T10:10:17.926Z,0.85
2023-02-17T10:12:53.028Z,1.00
2023-02-17T10:15:27.923Z,0.80
2023-02-17T10:18:18.731Z,0.80
2023-02-17T10:20:55.043Z,1.10
2023-02-17T10:23:28.043Z,1.63
2023-02-17T10:26:01.060Z,0.90
2023-02-17T10:29:01.156Z,0.90
2023-02-17T10:31:47.884Z,0.80
2023-02-17T10:34:44.394Z,0.73
2023-02-17T10:37:23.121Z,0.77
2023-02-17T10:39:56.477Z,0.60
2023-02-17T10:42:37.881Z,0.52
2023-02-17T10:45:23.183Z,0.90
2023-02-17T10:48:17.848Z,0.90
2023-02-17T10:50:49.414Z,1.25
2023-02-17T10:53:24.002Z,1.00
2023-02-17T10:56:03.727Z,0.98
2023-02-17T10:58:56.888Z,1.17
2023-02-17T11:01:29.276Z,1.20
2023-02-17T11:04:13.385Z,1.17
2023-02-17T11:06:58.975Z,0.77
2023-02-17T11:09:33.900Z,0.63
2023-02-17T11:12:16.030Z,1.20
2023-02-17T11:14:48.802Z,0.98
2023-02-17T11:17:32.021Z,0.60
2023-02-17T11:20:07.349Z,0.70
2023-02-17T11:22:43.060Z,1.10
2023-02-17T11:25:34.190Z,1.20
2023-02-17T11:28:07.621Z,0.88
2023-02-17T11:30:37.848Z,1.08
2023-02-17T11:35:56.131Z,0.90
2023-02-17T11:38:44.692Z,1.05
2023-02-17T11:41:15.623Z,1.15
2023-02-17T11:44:02.687Z,1.13
2023-02-17T11:46:40.259Z,1.10
2023-02-17T11:49:48.772Z,1.15
2023-02-17T11:52:37.525Z,0.95
2023-02-17T11:55:19.790Z,1.38
2023-02-17T11:58:26.382Z,1.25
2023-02-17T12:01:32.144Z,1.17
2023-02-17T12:04:22.570Z,1.85
2023-02-17T12:07:21.258Z,1.40
2023-02-17T12:10:37.357Z,1.75
2023-02-17T12:13:17.750Z,1.50
2023-02-17T12:16:11.620Z,1.27
2023-02-17T12:18:53.711Z,1.17
2023-02-17T12:21:26.522Z,2.15
2023-02-17T12:24:20.303Z,1.77
2023-02-17T12:27:00.742Z,1.30
2023-02-17T12:29:42.582Z,1.58
2023-02-17T12:32:27.496Z,1.80
2023-02-17T12:35:23.325Z,1.33
2023-02-17T12:38:02.410Z,1.42
2023-02-17T12:40:38.500Z,0.98
2023-02-17T12:43:32.076Z,1.33
2023-02-17T12:46:07.319Z,1.50
2023-02-17T12:49:07.496Z,1.15
2023-02-17T12:51:46.057Z,1.30
2023-02-17T12:54:24.842Z,1.45
2023-02-17T12:57:02.589Z,1.33
2023-02-17T12:59:32.733Z,1.92
2023-02-17T13:02:06.850Z,1.60
2023-02-17T13:04:38.148Z,1.15
2023-02-17T13:07:21.323Z,1.17
2023-02-17T13:09:52.918Z,0.82
2023-02-17T13:12:25.877Z,1.10
2023-02-17T13:15:03.426Z,0.90
2023-02-17T13:17:40.842Z,1.10
2023-02-17T13:20:13.774Z,1.10
2023-02-17T13:22:46.074Z,0.90
2023-02-17T13:25:33.256Z,0.90
2023-02-17T13:28:17.185Z,1.02
2023-02-17T13:30:49.451Z,1.50
2023-02-17T13:33:22.535Z,0.70
2023-02-17T13:35:52.804Z,0.80
2023-02-17T13:41:07.606Z,0.80
2023-02-17T13:43:44.881Z,1.05
2023-02-17T13:46:25.504Z,0.80
2023-02-17T13:49:05.597Z,1.08
2023-02-17T13:51:36.625Z,0.90
2023-02-17T13:54:09.773Z,0.98
2023-02-17T13:56:40.919Z,0.85
2023-02-17T13:59:19.146Z,0.73
2023-02-17T14:01:49.580Z,0.70
2023-02-17T14:04:39.882Z,0.80
2023-02-17T14:07:13.433Z,0.63
2023-02-17T14:17:05.718Z,0.60
2023-02-17T14:19:49.953Z,0.90
2023-02-17T14:22:31.507Z,0.60
2023-02-17T14:25:01.615Z,0.70
2023-02-17T14:27:41.946Z,0.50
2023-02-17T14:30:38.912Z,0.90
2023-02-17T14:33:18.307Z,0.77
2023-02-17T14:36:08.575Z,0.70
2023-02-17T14:38:42.789Z,0.63
2023-02-17T14:41:12.908Z,0.70
2023-02-17T14:46:12.391Z,0.57
2023-02-17T14:51:20.833Z,0.63
2023-02-17T14:53:52.367Z,0.65
2023-02-17T14:56:31.396Z,0.50
2023-02-17T14:59:01.640Z,0.90
2023-02-17T15:01:32.215Z,0.70
2023-02-17T15:04:04.011Z,1.00
2023-02-17T15:06:44.823Z,2.30
2023-02-17T15:09:18.280Z,2.83
2023-02-17T15:11:50.390Z,4.03
2023-02-17T15:14:22.213Z,3.53
2023-02-17T15:16:53.484Z,1.60
2023-02-17T15:19:23.600Z,0.98
2023-02-17T15:24:30.525Z,1.10
2023-02-17T15:27:04.476Z,0.90
2023-02-17T15:29:34.870Z,1.05
2023-02-17T15:32:12.382Z,1.23
2023-02-17T15:34:42.484Z,1.05
2023-02-17T15:37:13.031Z,1.00
2023-02-17T15:39:43.141Z,0.85
2023-02-17T15:44:51.710Z,0.85
2023-02-17T15:47:23.031Z,0.55
2023-02-17T15:49:53.246Z,0.60
2023-02-17T15:52:23.394Z,0.60
2023-02-17T15:57:26.026Z,0.68
2023-02-17T15:59:56.873Z,0.55
2023-02-17T16:02:27.480Z,0.88
2023-02-17T16:04:57.490Z,0.43
2023-02-17T16:07:27.574Z,0.50
2023-02-17T16:12:34.528Z,1.02
2023-02-17T16:15:06.105Z,1.17
2023-02-17T16:17:37.128Z,1.10
2023-02-17T16:20:14.625Z,0.75
2023-02-17T16:22:46.357Z,1.10
2023-02-17T16:25:17.987Z,0.47
2023-02-17T16:27:50.782Z,0.50
2023-02-17T16:30:30.915Z,0.90
2023-02-17T16:33:01.604Z,0.70
2023-02-17T16:35:33.623Z,0.73
2023-02-17T16:38:23.704Z,0.60
2023-02-17T16:40:54.931Z,0.47
2023-02-17T16:43:29.029Z,0.85
2023-02-17T16:46:02.740Z,0.43
2023-02-17T16:48:35.488Z,0.47
2023-02-17T16:51:05.715Z,0.43
2023-02-17T16:53:35.822Z,0.65
2023-02-17T16:56:15.530Z,0.57
2023-02-17T16:58:46.040Z,0.38
2023-02-17T17:01:16.739Z,0.50
2023-02-17T17:03:47.066Z,1.20
2023-02-17T17:06:24.961Z,0.50
2023-02-17T17:08:56.015Z,0.90
2023-02-17T17:11:27.560Z,0.45
2023-02-17T17:13:57.808Z,0.70
2023-02-17T17:16:34.565Z,0.90
2023-02-17T17:19:05.351Z,0.98
2023-02-17T17:21:35.830Z,0.35
2023-02-17T17:24:06.327Z,0.35
2023-02-17T17:26:42.484Z,0.52
2023-02-17T17:29:18.012Z,0.50
2023-02-17T17:31:48.491Z,0.40
2023-02-17T17:34:18.638Z,0.52
2023-02-17T17:36:49.849Z,0.70
2023-02-17T17:39:23.429Z,0.60
2023-02-17T17:41:53.750Z,0.60
2023-02-17T17:44:23.946Z,0.50
2023-02-17T17:46:54.193Z,0.70
2023-02-17T17:49:24.500Z,0.50
2023-02-17T17:51:54.629Z,0.50
2023-02-17T17:56:56.079Z,0.73
2023-02-17T17:59:27.270Z,0.90
2023-02-17T18:01:57.409Z,0.50
2023-02-17T18:06:59.247Z,0.55
2023-02-17T18:09:32.722Z,0.50
2023-02-17T18:12:07.306Z,0.28
2023-02-17T18:14:39.272Z,0.93
2023-02-17T18:17:11.828Z,0.30
2023-02-17T18:19:42.937Z,0.60
2023-02-17T18:22:13.330Z,0.75
2023-02-17T18:24:43.411Z,0.60
2023-02-17T18:27:13.582Z,0.60
2023-02-17T18:29:44.758Z,0.60
2023-02-17T18:32:15.539Z,0.52
2023-02-17T18:34:45.720Z,0.70
2023-02-17T18:37:16.131Z,0.50
2023-02-17T18:39:46.448Z,0.40
2023-02-17T18:42:16.699Z,0.30
2023-02-17T18:44:46.850Z,0.50
2023-02-17T18:47:16.785Z,0.30
2023-02-17T18:49:46.755Z,0.50
2023-02-17T18:52:16.817Z,0.45
2023-02-17T18:54:47.389Z,0.50
2023-02-17T18:57:18.080Z,0.80
2023-02-17T18:59:48.327Z,0.63
2023-02-17T19:02:18.737Z,0.47
2023-02-17T19:04:49.143Z,0.70
2023-02-17T19:07:19.349Z,0.77
2023-02-17T19:09:52.808Z,0.57
2023-02-17T19:12:23.056Z,0.55
2023-02-17T19:14:56.824Z,0.70
2023-02-17T19:17:27.567Z,0.40
2023-02-17T19:19:57.807Z,0.55
2023-02-17T19:22:27.969Z,0.38
2023-02-17T19:25:04.765Z,0.50
2023-02-17T19:27:35.644Z,0.40
2023-02-17T19:30:05.977Z,0.52
2023-02-17T19:32:36.110Z,0.38
2023-02-17T19:35:06.922Z,0.60
2023-02-17T19:37:37.237Z,0.60
2023-02-17T19:40:07.951Z,0.50
2023-02-17T19:42:38.781Z,0.52
2023-02-17T19:45:09.017Z,0.40
2023-02-17T19:47:39.189Z,0.65
2023-02-17T19:52:39.636Z,0.30
2023-02-17T19:55:11.232Z,0.35
2023-02-17T19:57:41.433Z,0.50
2023-02-17T20:02:41.690Z,0.35
2023-02-17T20:05:11.877Z,0.50
2023-02-17T20:07:42.191Z,0.70
2023-02-17T20:10:13.984Z,0.40
2023-02-17T20:12:44.257Z,0.65
2023-02-17T20:15:14.457Z,0.60
2023-02-17T20:17:44.660Z,0.60
2023-02-17T20:22:44.067Z,0.98
2023-02-17T20:25:14.340Z,0.98
2023-02-17T20:30:14.827Z,1.13
2023-02-17T20:32:45.031Z,0.70
2023-02-17T20:35:16.041Z,0.70
2023-02-17T20:37:46.538Z,0.32
2023-02-17T20:40:17.041Z,0.60
2023-02-17T20:42:47.199Z,0.60
2023-02-17T20:47:46.900Z,0.50
2023-02-17T20:50:20.538Z,0.47
2023-02-17T20:52:51.362Z,0.45
2023-02-17T20:55:21.936Z,0.60
2023-02-17T20:57:52.044Z,0.50
2023-02-17T21:00:25.435Z,0.73
2023-02-17T21:02:56.028Z,0.73
2023-02-17T21:05:27.781Z,0.73
2023-02-17T21:07:58.972Z,0.60
2023-02-17T21:10:31.531Z,0.40
2023-02-17T21:13:01.610Z,0.50
2023-02-17T21:15:31.758Z,0.60
2023-02-17T21:18:02.018Z,0.30
2023-02-17T21:23:02.186Z,0.40
2023-02-17T21:25:32.746Z,0.40
2023-02-17T21:28:02.954Z,0.22
2023-02-17T21:30:33.297Z,0.40
2023-02-17T21:35:32.978Z,0.55
2023-02-17T21:38:03.940Z,0.63
2023-02-17T21:40:33.985Z,0.90
2023-02-17T21:43:22.356Z,1.15
2023-02-17T21:45:53.188Z,0.60
2023-02-17T21:50:52.944Z,0.68
2023-02-17T21:53:23.164Z,0.43
2023-02-17T21:58:22.590Z,0.40
2023-02-17T22:03:22.129Z,0.30
2023-02-17T22:08:22.338Z,0.20
2023-02-17T22:10:52.480Z,0.22
2023-02-17T22:15:59.548Z,0.50
2023-02-17T22:18:30.249Z,1.13
2023-02-17T22:21:00.420Z,1.02
2023-02-17T22:23:30.581Z,1.00
2023-02-17T22:26:00.670Z,0.95
2023-02-17T22:28:30.649Z,0.88
2023-02-17T22:31:00.846Z,1.00
2023-02-17T22:33:30.851Z,0.50
2023-02-17T22:36:07.803Z,0.52
2023-02-17T22:38:38.535Z,0.50
2023-02-17T22:43:40.829Z,0.43
2023-02-17T22:46:12.312Z,0.40
2023-02-17T22:48:42.466Z,0.60
2023-02-17T22:51:15.948Z,0.55
2023-02-17T22:53:46.493Z,0.50
2023-02-17T22:56:17.235Z,0.60
2023-02-17T22:58:47.537Z,0.60
2023-02-17T23:03:53.706Z,1.00
2023-02-17T23:06:33.122Z,0.98
2023-02-17T23:09:04.041Z,1.83
2023-02-17T23:11:52.057Z,2.20
2023-02-17T23:14:34.759Z,2.53
2023-02-17T23:19:36.927Z,1.88
2023-02-17T23:22:11.318Z,1.70
2023-02-17T23:24:41.485Z,1.58
2023-02-17T23:27:12.258Z,2.25
2023-02-17T23:29:43.520Z,3.30
2023-02-17T23:32:13.662Z,3.92
2023-02-17T23:34:43.588Z,4.38
2023-02-17T23:37:13.644Z,4.80
2023-02-17T23:39:43.516Z,4.80
2023-02-17T23:42:13.640Z,5.32
2023-02-17T23:44:43.724Z,3.30
2023-02-17T23:49:43.135Z,1.63
2023-02-17T23:52:13.323Z,1.30
2023-02-17T23:54:43.542Z,0.93
2023-02-17T23:57:13.669Z,0.70
2023-02-17T23:59:43.572Z,0.45
